KDAY

James M Cox Dayton International Airport

Dayton, Ohio, USA
KDAY 260520Z 2606/2706 35005KT P6SM FEW250 FM261400 09004KT P6SM SCT040 BKN200 FM270200 03003KT P6SM SCT040 BKN080
Issued Valid From Valid To
Apr-26 @ 05:20 UTC
(38 minutes ago)
Apr-26 @ 06:00 UTC
(in 2 minutes)
Apr-27 @ 06:00 UTC
(in 24 hours)
Apr-26 @ 06:00 to Apr-26 @ 14:00
KDAY 260520Z 2606/2706 35005KT P6SM FEW250
Wind Visibility Clouds
350° at 5 knots Greater than 6 miles
  • Few at 25,000' AGL
From Apr-26 @ 14:00 to Apr-27 @ 02:00
FM261400 09004KT P6SM SCT040 BKN200
Wind Visibility Clouds
90° at 4 knots Greater than 6 miles
  • Scattered at 4,000' AGL
  • Broken at 20,000' AGL
From Apr-27 @ 02:00 to Apr-27 @ 06:00
FM270200 03003KT P6SM SCT040 BKN080
Wind Visibility Clouds
30° at 3 knots Greater than 6 miles
  • Scattered at 4,000' AGL
  • Broken at 8,000' AGL
KDAY 260520Z 2606/2706 35005KT P6SM FEW250 FM261400 09004KT P6SM SCT040 BKN200 FM270200 03003KT P6SM SCT040 BKN080
Issued Apr-26 @ 05:20 UTC
(38 minutes ago)
Valid From Apr-26 @ 06:00 UTC
(in 2 minutes)
Valid To Apr-27 @ 06:00 UTC
(in 24 hours)
Apr-26 @ 06:00 - Apr-26 @ 14:00
Wind Visibility
350° at 5 knots Greater than 6 miles
Clouds
  • Few at 25,000' AGL
From Apr-26 @ 14:00 - Apr-27 @ 02:00
Wind Visibility
90° at 4 knots Greater than 6 miles
Clouds
  • Scattered at 4,000' AGL
  • Broken at 20,000' AGL
From Apr-27 @ 02:00 - Apr-27 @ 06:00
Wind Visibility
30° at 3 knots Greater than 6 miles
Clouds
  • Scattered at 4,000' AGL
  • Broken at 8,000' AGL